Time;durP1;ratioP1;P1;durP2;ratioP2;P2;SDS_P1;SDS_P2;PMS_P1;PMS_P2;Temp;Humidity;BMP_temperature;BMP_pressure;BME280_temperature;BME280_humidity;BME280_pressure;Samples;Min_cycle;Max_cycle;Signal;HPM_P1;HPM_P2
2023/10/14 00:00:31;;;;;;;4.30;1.45;;;;;;;14.98;100.00;99992.72;5004362;28;20109;-76
2023/10/14 00:03:05;;;;;;;9.48;1.75;;;;;;;14.83;100.00;100012.25;5005632;28;20045;-75
2023/10/14 00:05:31;;;;;;;3.28;1.42;;;;;;;14.77;100.00;100030.97;5010037;28;20048;-76
2023/10/14 00:07:56;;;;;;;6.88;1.17;;;;;;;14.72;100.00;100063.91;5016994;28;20037;-75
2023/10/14 00:10:22;;;;;;;4.75;1.27;;;;;;;14.60;100.00;100024.59;5008726;28;20436;-75
2023/10/14 00:12:53;;;;;;;2.95;1.20;;;;;;;14.51;100.00;100019.13;5006575;28;20026;-76
2023/10/14 00:15:19;;;;;;;3.63;1.15;;;;;;;14.43;100.00;100026.34;5008743;28;20375;-76
2023/10/14 00:17:44;;;;;;;2.80;0.82;;;;;;;14.36;100.00;100019.88;5008905;28;20038;-76
2023/10/14 00:20:10;;;;;;;6.32;1.58;;;;;;;14.32;100.00;100032.84;5010066;28;20096;-76
2023/10/14 00:22:39;;;;;;;3.65;1.13;;;;;;;14.23;100.00;100042.75;5013275;28;20106;-76
2023/10/14 00:25:19;;;;;;;4.45;1.20;;;;;;;14.23;100.00;100036.47;5011170;28;20057;-76
2023/10/14 00:27:44;;;;;;;4.28;1.35;;;;;;;14.19;100.00;100021.56;5000522;28;20428;-76
2023/10/14 00:30:11;;;;;;;2.92;1.05;;;;;;;14.11;100.00;100038.56;5009734;28;20112;-76
2023/10/14 00:32:37;;;;;;;1.10;1.00;;;;;;;14.01;100.00;100052.16;5018393;28;20560;-76
2023/10/14 00:35:09;;;;;;;1.65;0.95;;;;;;;13.99;100.00;100078.50;5010101;28;20030;-76
2023/10/14 00:37:35;;;;;;;4.03;0.82;;;;;;;13.91;100.00;100090.06;5014499;28;20042;-76
2023/10/14 00:40:02;;;;;;;1.73;1.20;;;;;;;13.85;100.00;100093.41;5014900;28;20034;-76
2023/10/14 00:42:27;;;;;;;5.05;1.02;;;;;;;13.79;100.00;100088.56;5014068;28;20049;-76
2023/10/14 00:44:53;;;;;;;2.65;1.35;;;;;;;13.76;100.00;100088.88;5014299;28;20129;-76
2023/10/14 00:47:18;;;;;;;5.50;1.48;;;;;;;13.78;100.00;100093.13;5013760;28;20052;-76
2023/10/14 00:49:45;;;;;;;5.05;1.48;;;;;;;13.77;100.00;100094.13;4994182;28;20022;-76
2023/10/14 00:52:18;;;;;;;6.53;1.65;;;;;;;13.77;100.00;100086.03;5014985;28;20426;-76
2023/10/14 00:59:48;;;;;;;6.43;1.88;;;;;;;13.79;100.00;100093.97;5013870;28;20115;-78
2023/10/14 01:02:14;;;;;;;4.13;2.00;;;;;;;13.80;100.00;100106.50;4999531;28;20455;-78
2023/10/14 01:04:41;;;;;;;3.78;1.98;;;;;;;13.80;100.00;100111.88;5011466;28;20164;-78
2023/10/14 01:07:13;;;;;;;8.63;2.35;;;;;;;13.80;100.00;100111.88;4994058;28;20026;-78
2023/10/14 01:14:59;;;;;;;11.45;3.55;;;;;;;13.75;100.00;100130.41;5011713;28;20052;-78
2023/10/14 01:17:29;;;;;;;13.25;3.83;;;;;;;13.78;100.00;100143.63;5011807;28;20033;-78
2023/10/14 01:19:56;;;;;;;10.65;3.78;;;;;;;13.76;100.00;100164.50;5012765;28;20198;-77
2023/10/14 01:22:21;;;;;;;12.07;2.72;;;;;;;13.73;100.00;100164.81;4993480;28;20025;-77
2023/10/14 01:24:47;;;;;;;7.97;2.15;;;;;;;13.64;100.00;100169.25;4993752;28;20057;-78
2023/10/14 01:27:13;;;;;;;7.00;2.22;;;;;;;13.57;100.00;100185.22;4993865;28;20029;-78
2023/10/14 01:29:39;;;;;;;11.05;2.58;;;;;;;13.48;100.00;100188.78;4992505;28;20029;-78
2023/10/14 01:35:24;;;;;;;10.82;2.00;;;;;;;13.39;100.00;100200.47;5005882;28;20115;-78
2023/10/14 01:37:57;;;;;;;9.48;2.20;;;;;;;13.33;100.00;100217.22;5002910;28;20037;-78
2023/10/14 01:40:27;;;;;;;8.90;2.17;;;;;;;13.31;100.00;100213.81;5004090;28;20141;-78
2023/10/14 01:42:58;;;;;;;13.70;2.47;;;;;;;13.31;100.00;100219.19;4991822;28;20026;-78
2023/10/14 01:45:30;;;;;;;7.90;2.03;;;;;;;13.29;100.00;100222.91;5010532;28;20531;-78
2023/10/14 01:50:45;;;;;;;7.32;2.13;;;;;;;13.32;100.00;100253.28;5008297;28;20030;-78
2023/10/14 01:53:12;;;;;;;15.10;2.63;;;;;;;13.29;100.00;100258.00;5017893;28;20030;-78
2023/10/14 01:55:42;;;;;;;12.77;2.55;;;;;;;13.23;100.00;100260.41;5011575;28;20441;-78
2023/10/14 01:58:13;;;;;;;;;;;;;;;13.27;100.00;100262.69;5006705;28;20022;-77
2023/10/14 02:00:39;;;;;;;9.20;2.33;;;;;;;13.16;100.00;100279.00;5008811;28;19960;-78
2023/10/14 02:03:08;;;;;;;11.43;2.50;;;;;;;13.14;100.00;100282.88;5010630;28;20033;-77
2023/10/14 02:05:39;;;;;;;17.48;3.28;;;;;;;13.11;100.00;100287.53;4992758;28;20125;-77
2023/10/14 02:08:13;;;;;;;12.18;2.88;;;;;;;13.07;100.00;100298.75;5016969;28;20080;-77
2023/10/14 02:10:38;;;;;;;9.02;2.65;;;;;;;13.04;100.00;100310.69;5011996;28;20061;-77
2023/10/14 02:13:03;;;;;;;15.90;2.72;;;;;;;13.00;100.00;100309.28;5029769;28;20058;-77
2023/10/14 02:15:29;;;;;;;12.48;2.63;;;;;;;12.98;100.00;100315.81;5008350;28;20026;-77
2023/10/14 02:17:54;;;;;;;15.07;2.97;;;;;;;12.98;100.00;100321.22;5016138;28;20034;-77
2023/10/14 02:20:27;;;;;;;10.95;2.83;;;;;;;12.99;100.00;100328.28;5009962;28;20332;-77
2023/10/14 02:22:57;;;;;;;11.65;3.28;;;;;;;12.94;100.00;100334.97;5009135;28;20471;-77
2023/10/14 02:25:27;;;;;;;;;;;;;;;13.01;100.00;100337.94;5023958;28;20029;-77
2023/10/14 02:27:53;;;;;;;9.63;2.42;;;;;;;12.94;100.00;100340.38;5012915;28;19971;-77
2023/10/14 02:30:18;;;;;;;13.75;2.97;;;;;;;12.93;100.00;100354.00;5007033;28;20033;-77
2023/10/14 02:32:43;;;;;;;13.23;2.75;;;;;;;12.92;100.00;100361.22;5009336;28;20033;-77
2023/10/14 02:35:09;;;;;;;18.08;2.67;;;;;;;12.90;100.00;100374.00;5011747;28;20827;-78
2023/10/14 02:37:34;;;;;;;8.13;2.55;;;;;;;12.90;100.00;100376.69;5010706;28;20128;-77
2023/10/14 02:39:59;;;;;;;14.23;2.95;;;;;;;12.88;100.00;100378.66;5004966;28;20096;-77
2023/10/14 02:42:25;;;;;;;17.85;3.20;;;;;;;12.85;100.00;100389.75;5005052;28;20026;-77
2023/10/14 02:44:53;;;;;;;13.30;2.67;;;;;;;12.77;100.00;100390.44;5004442;28;20041;-77
2023/10/14 02:47:26;;;;;;;12.52;2.90;;;;;;;12.77;100.00;100403.91;5028417;28;20045;-77
2023/10/14 02:50:11;;;;;;;14.23;2.95;;;;;;;12.72;100.00;100408.00;5005879;28;20383;-77
2023/10/14 02:52:39;;;;;;;15.15;3.20;;;;;;;12.68;100.00;100420.06;5007117;28;20029;-77
2023/10/14 02:56:20;;;;;;;15.00;2.78;;;;;;;12.57;100.00;100427.25;5009119;28;20034;-76
2023/10/14 02:58:03;;;;;;;16.83;3.13;;;;;;;12.51;100.00;100438.59;5006990;28;20037;-77
2023/10/14 03:00:32;;;;;;;10.68;2.80;;;;;;;12.43;100.00;100448.34;4999804;28;20064;-77
2023/10/14 03:03:09;;;;;;;8.27;2.30;;;;;;;12.37;100.00;100457.81;5007087;28;20057;-77
2023/10/14 03:08:10;;;;;;;15.85;3.15;;;;;;;12.28;100.00;100475.63;5010220;28;20061;-77
2023/10/14 03:10:39;;;;;;;15.52;2.70;;;;;;;12.19;100.00;100490.75;5007766;28;20348;-77
2023/10/14 03:13:11;;;;;;;16.38;3.20;;;;;;;12.14;100.00;100494.81;5007823;28;20060;-78
2023/10/14 03:15:38;;;;;;;15.70;3.35;;;;;;;12.02;100.00;100494.03;5012260;28;20029;-78
2023/10/14 03:18:05;;;;;;;18.92;3.83;;;;;;;11.97;100.00;100502.50;5012560;28;20037;-77
2023/10/14 03:22:58;;;;;;;17.95;3.20;;;;;;;11.89;100.00;100519.28;5009754;28;20121;-78
2023/10/14 03:25:24;;;;;;;16.90;3.42;;;;;;;11.84;100.00;100518.81;5008537;28;20104;-78
2023/10/14 03:27:50;;;;;;;11.95;2.90;;;;;;;11.76;100.00;100529.38;5014406;28;20053;-78
2023/10/14 03:30:17;;;;;;;14.02;3.35;;;;;;;11.71;100.00;100529.78;5006238;28;20552;-78
2023/10/14 03:32:42;;;;;;;14.68;3.15;;;;;;;11.66;100.00;100534.66;4999380;28;20172;-78
2023/10/14 03:35:11;;;;;;;18.38;3.38;;;;;;;11.61;100.00;100549.50;5002555;28;20394;-78
2023/10/14 03:37:44;;;;;;;19.15;3.75;;;;;;;11.56;100.00;100549.88;5018490;28;20033;-78
2023/10/14 03:42:54;;;;;;;12.23;3.13;;;;;;;11.43;100.00;100562.63;5013541;28;20572;-78
2023/10/14 03:45:28;;;;;;;15.63;3.38;;;;;;;11.36;100.00;100570.34;5009177;28;20029;-78
2023/10/14 03:47:59;;;;;;;15.57;3.03;;;;;;;11.27;100.00;100574.63;5013054;28;20061;-78
2023/10/14 03:50:25;;;;;;;15.48;2.80;;;;;;;11.22;100.00;100579.53;4991908;28;20026;-78
2023/10/14 03:52:53;;;;;;;17.25;3.25;;;;;;;11.17;100.00;100577.22;4997894;28;20026;-78
2023/10/14 03:55:24;;;;;;;11.05;2.83;;;;;;;11.15;100.00;100579.16;4995677;28;20034;-78
2023/10/14 03:57:51;;;;;;;11.95;2.85;;;;;;;11.06;100.00;100590.66;4997404;28;20137;-78
2023/10/14 04:00:48;;;;;;;13.18;2.90;;;;;;;11.03;100.00;100590.91;5012817;28;20048;-79
2023/10/14 04:03:12;;;;;;;17.67;3.28;;;;;;;10.96;100.00;100600.44;5010016;28;20160;-79
2023/10/14 04:05:52;;;;;;;12.50;3.10;;;;;;;10.94;100.00;100605.09;5011518;28;20108;-79
2023/10/14 04:08:25;;;;;;;12.60;2.47;;;;;;;10.89;100.00;100612.66;5008411;28;20034;-79
2023/10/14 04:10:54;;;;;;;14.02;2.90;;;;;;;10.81;100.00;100608.72;4997818;28;20022;-79
2023/10/14 04:13:21;;;;;;;13.38;2.75;;;;;;;10.76;100.00;100621.69;5013173;28;20029;-79
2023/10/14 04:15:52;;;;;;;14.63;3.08;;;;;;;10.68;100.00;100624.09;5006455;28;20026;-78
2023/10/14 04:18:24;;;;;;;17.45;3.40;;;;;;;10.65;100.00;100637.78;5007233;28;20483;-79
2023/10/14 04:21:13;;;;;;;19.15;3.28;;;;;;;10.63;100.00;100645.97;4990760;28;20026;-79
2023/10/14 04:23:59;;;;;;;18.33;3.53;;;;;;;10.60;100.00;100659.63;4990776;28;20033;-78
2023/10/14 04:26:24;;;;;;;13.60;2.50;;;;;;;10.63;100.00;100661.22;5006366;28;20048;-78
2023/10/14 04:28:58;;;;;;;10.00;3.00;;;;;;;10.58;100.00;100661.56;5006934;28;20033;-79
2023/10/14 04:31:38;;;;;;;17.95;3.53;;;;;;;10.56;100.00;100662.69;4986973;28;20301;-79
2023/10/14 04:34:05;;;;;;;15.25;3.00;;;;;;;10.56;100.00;100671.59;5005857;28;20491;-79
2023/10/14 04:36:36;;;;;;;17.92;4.28;;;;;;;10.55;100.00;100679.78;5004319;28;20045;-79
2023/10/14 04:39:15;;;;;;;18.23;3.65;;;;;;;10.56;100.00;100689.56;4989370;28;20472;-79
2023/10/14 04:41:47;;;;;;;21.90;3.65;;;;;;;10.53;100.00;100689.75;5006737;28;20034;-78
2023/10/14 04:44:13;;;;;;;13.55;3.33;;;;;;;10.52;100.00;100696.13;4988831;28;20480;-79
2023/10/14 04:47:01;;;;;;;17.15;3.25;;;;;;;10.51;100.00;100699.78;4990469;28;20060;-79
2023/10/14 04:49:36;;;;;;;20.70;3.55;;;;;;;10.49;100.00;100702.59;4990282;28;20053;-79
2023/10/14 04:52:05;;;;;;;19.73;3.55;;;;;;;10.49;100.00;100711.50;4982535;28;20041;-79
2023/10/14 04:54:34;;;;;;;17.23;3.28;;;;;;;10.48;100.00;100719.69;4990490;28;20052;-79
2023/10/14 04:56:59;;;;;;;17.83;3.05;;;;;;;10.46;100.00;100714.41;5008518;28;20044;-80
2023/10/14 04:59:27;;;;;;;19.80;3.80;;;;;;;10.47;100.00;100718.81;5007103;28;20041;-78
2023/10/14 05:01:55;;;;;;;13.82;3.13;;;;;;;10.50;100.00;100733.88;5002243;28;20476;-79
2023/10/14 05:04:22;;;;;;;14.00;2.92;;;;;;;10.46;100.00;100738.59;5006745;28;20043;-79
2023/10/14 05:06:52;;;;;;;25.20;3.55;;;;;;;10.42;100.00;100742.47;5003118;28;20022;-79
2023/10/14 05:09:30;;;;;;;16.77;3.22;;;;;;;10.45;100.00;100734.22;4994125;28;20071;-79
2023/10/14 05:12:00;;;;;;;27.52;3.63;;;;;;;10.46;100.00;100740.44;5008979;28;20463;-79
2023/10/14 05:14:36;;;;;;;16.60;3.63;;;;;;;10.48;100.00;100744.72;5009983;28;20029;-79
2023/10/14 05:19:41;;;;;;;21.35;4.25;;;;;;;10.50;100.00;100758.06;5010866;28;20033;-79
2023/10/14 05:22:13;;;;;;;14.10;3.35;;;;;;;10.53;100.00;100759.63;5010031;28;20026;-79
2023/10/14 05:24:45;;;;;;;18.67;3.15;;;;;;;10.54;100.00;100767.59;5008976;28;20022;-79
2023/10/14 05:27:11;;;;;;;11.38;3.20;;;;;;;10.59;100.00;100775.31;5009671;28;20205;-79
2023/10/14 05:29:36;;;;;;;15.18;3.55;;;;;;;10.58;100.00;100778.97;4991243;28;20025;-78
2023/10/14 05:32:10;;;;;;;12.68;2.85;;;;;;;10.49;100.00;100775.13;4989263;28;20033;-79
2023/10/14 05:34:37;;;;;;;15.68;3.10;;;;;;;10.50;100.00;100779.56;5016201;28;20026;-78
2023/10/14 05:37:03;;;;;;;15.30;2.92;;;;;;;10.46;100.00;100786.97;5000125;28;20050;-78
2023/10/14 05:39:34;;;;;;;16.05;3.50;;;;;;;10.39;100.00;100791.06;5017514;28;20052;-78
2023/10/14 05:42:00;;;;;;;19.17;3.90;;;;;;;10.36;100.00;100785.94;5015817;28;20112;-78
2023/10/14 05:44:29;;;;;;;14.18;3.60;;;;;;;10.41;100.00;100789.16;4994208;28;20053;-75
2023/10/14 05:46:55;;;;;;;19.88;3.63;;;;;;;10.38;100.00;100807.31;5010244;28;20091;-75
2023/10/14 05:49:24;;;;;;;19.67;4.00;;;;;;;10.42;100.00;100801.59;4994048;28;20026;-76
2023/10/14 05:51:51;;;;;;;12.25;3.40;;;;;;;10.46;100.00;100811.16;5011598;28;20179;-76
2023/10/14 05:54:16;;;;;;;13.10;2.80;;;;;;;10.47;100.00;100810.19;4994111;28;20116;-76
2023/10/14 05:56:43;;;;;;;15.50;3.40;;;;;;;10.56;100.00;100815.88;5009823;28;20161;-75
2023/10/14 05:59:10;;;;;;;17.38;3.47;;;;;;;10.51;100.00;100820.69;5011474;28;20368;-76
2023/10/14 06:01:36;;;;;;;16.85;3.33;;;;;;;10.55;100.00;100825.72;4993751;28;20479;-76
2023/10/14 06:04:02;;;;;;;16.33;4.18;;;;;;;10.56;100.00;100840.03;4993372;28;20018;-77
2023/10/14 06:06:27;;;;;;;13.88;4.13;;;;;;;10.62;100.00;100850.34;4993470;28;20740;-75
2023/10/14 06:08:53;;;;;;;17.77;3.67;;;;;;;10.62;100.00;100856.56;4993434;28;20029;-76
2023/10/14 06:11:18;;;;;;;9.38;2.83;;;;;;;10.62;100.00;100850.34;5011373;28;20022;-76
2023/10/14 06:13:44;;;;;;;24.35;3.63;;;;;;;10.63;100.00;100862.78;4993670;28;20025;-76
2023/10/14 06:16:11;;;;;;;14.07;3.13;;;;;;;10.65;100.00;100866.25;4992848;28;20026;-76
2023/10/14 06:18:37;;;;;;;17.38;3.85;;;;;;;10.63;100.00;100870.84;5010667;28;20063;-76
2023/10/14 06:21:05;;;;;;;15.38;3.97;;;;;;;10.62;100.00;100872.69;4993246;28;20033;-76
2023/10/14 06:23:31;;;;;;;14.48;3.47;;;;;;;10.60;100.00;100884.50;4993217;28;20175;-75
2023/10/14 06:25:57;;;;;;;13.20;3.15;;;;;;;10.62;100.00;100879.91;4993384;28;20030;-76
2023/10/14 06:28:22;;;;;;;14.07;3.15;;;;;;;10.64;100.00;100884.19;4993019;28;20021;-76
2023/10/14 06:30:48;;;;;;;16.73;4.25;;;;;;;10.65;100.00;100903.88;5011006;28;20056;-76
2023/10/14 06:33:13;;;;;;;16.73;2.90;;;;;;;10.66;100.00;100905.59;5010961;28;20040;-76
2023/10/14 06:35:42;;;;;;;16.42;3.50;;;;;;;10.64;100.00;100905.72;4992936;28;20447;-77
2023/10/14 06:38:11;;;;;;;17.30;3.33;;;;;;;10.64;100.00;100920.97;4993114;28;20048;-76
2023/10/14 06:40:37;;;;;;;19.73;4.07;;;;;;;10.67;100.00;100920.72;5002801;28;20038;-76
2023/10/14 06:43:08;;;;;;;18.98;3.20;;;;;;;10.66;100.00;100925.25;4992907;28;20026;-76
2023/10/14 06:45:35;;;;;;;12.43;2.88;;;;;;;10.62;100.00;100933.66;5010592;28;20048;-76
2023/10/14 06:48:03;;;;;;;18.38;3.53;;;;;;;10.62;100.00;100936.34;4998521;28;20054;-77
2023/10/14 06:50:30;;;;;;;12.52;3.10;;;;;;;10.63;100.00;100944.28;5010157;28;20456;-76
2023/10/14 06:52:59;;;;;;;19.98;3.83;;;;;;;10.63;100.00;100960.44;5009948;28;20326;-80
2023/10/14 06:55:42;;;;;;;14.35;3.15;;;;;;;10.64;100.00;100963.97;5010096;28;20381;-80
2023/10/14 06:58:11;;;;;;;13.27;3.58;;;;;;;10.64;100.00;100969.34;5003913;28;20049;-80
2023/10/14 07:00:37;;;;;;;15.80;3.70;;;;;;;10.65;100.00;100971.06;5009968;28;20399;-81
2023/10/14 07:03:06;;;;;;;17.50;3.97;;;;;;;10.65;100.00;100974.59;5026315;28;20025;-79
2023/10/14 07:05:42;;;;;;;14.23;3.22;;;;;;;10.64;100.00;100983.66;5041853;28;20037;-78
2023/10/14 07:08:12;;;;;;;14.60;3.35;;;;;;;10.72;100.00;100979.53;5019212;28;20025;-78
2023/10/14 07:10:40;;;;;;;15.32;3.45;;;;;;;10.70;100.00;100986.84;5024819;28;20097;-78
2023/10/14 07:13:06;;;;;;;19.45;3.55;;;;;;;10.75;100.00;100985.56;5027982;28;20028;-80
2023/10/14 07:15:36;;;;;;;19.70;3.75;;;;;;;10.77;100.00;100999.75;5027129;28;20053;-78
2023/10/14 07:18:02;;;;;;;17.48;3.85;;;;;;;10.72;100.00;101001.91;5044023;28;20025;-79
2023/10/14 07:20:31;;;;;;;18.80;3.30;;;;;;;10.74;100.00;100999.13;5027238;28;20032;-79
2023/10/14 07:22:58;;;;;;;13.02;2.88;;;;;;;10.80;100.00;101001.34;5028331;28;20026;-79
2023/10/14 07:25:30;;;;;;;13.95;2.95;;;;;;;10.79;100.00;101003.19;5030543;28;20125;-79
2023/10/14 07:27:59;;;;;;;12.15;2.60;;;;;;;10.83;100.00;101006.50;5026632;28;20540;-79
2023/10/14 07:30:27;;;;;;;15.38;3.50;;;;;;;10.84;100.00;101013.63;5022194;28;20029;-79
2023/10/14 07:32:54;;;;;;;18.40;3.25;;;;;;;10.83;100.00;101022.63;5042776;28;20021;-79
2023/10/14 07:35:20;;;;;;;23.83;3.80;;;;;;;10.83;100.00;101023.53;5044013;28;20030;-79
2023/10/14 07:37:48;;;;;;;16.45;3.60;;;;;;;10.84;100.00;101027.91;5027880;28;20497;-79
2023/10/14 07:40:22;;;;;;;17.13;3.92;;;;;;;10.90;100.00;101025.75;5027141;28;20038;-80
2023/10/14 07:42:55;;;;;;;15.65;3.42;;;;;;;10.90;100.00;101033.84;5028413;28;20025;-79
2023/10/14 07:45:28;;;;;;;14.77;3.08;;;;;;;10.91;100.00;101035.53;5028260;28;20037;-80
2023/10/14 07:47:54;;;;;;;11.50;2.72;;;;;;;10.93;100.00;101038.97;5022923;28;20118;-78
2023/10/14 07:50:20;;;;;;;18.65;3.35;;;;;;;10.96;100.00;101044.13;5044525;28;20046;-80
2023/10/14 07:52:45;;;;;;;15.65;3.50;;;;;;;10.99;100.00;101046.59;5043973;28;20044;-79
2023/10/14 07:55:15;;;;;;;18.08;3.70;;;;;;;11.03;100.00;101042.72;5023949;28;20013;-80
2023/10/14 07:57:41;;;;;;;16.90;3.40;;;;;;;11.05;100.00;101053.38;5042252;28;20518;-80
2023/10/14 08:00:14;;;;;;;16.15;3.28;;;;;;;11.05;100.00;101056.91;5030211;28;20026;-78
2023/10/14 08:02:41;;;;;;;16.33;3.22;;;;;;;11.07;100.00;101055.00;5031285;28;20014;-79
2023/10/14 08:05:08;;;;;;;16.88;3.60;;;;;;;11.09;100.00;101061.09;5013570;28;20447;-76
2023/10/14 08:07:40;;;;;;;16.10;3.00;;;;;;;11.13;100.00;101059.91;5009373;28;20052;-76
2023/10/14 08:10:18;;;;;;;16.60;3.90;;;;;;;11.14;100.00;101064.34;4999844;28;20031;-77
2023/10/14 08:12:47;;;;;;;16.10;3.78;;;;;;;11.18;100.00;101067.66;5024365;28;20117;-77
2023/10/14 08:15:14;;;;;;;18.05;3.70;;;;;;;11.23;100.00;101080.75;5001804;28;20022;-76
2023/10/14 08:17:42;;;;;;;14.07;3.05;;;;;;;11.23;100.00;101086.16;5024209;28;20060;-76
2023/10/14 08:20:12;;;;;;;16.55;4.00;;;;;;;11.29;100.00;101088.38;5008911;28;20340;-76
2023/10/14 08:22:45;;;;;;;16.60;3.85;;;;;;;11.30;100.00;101090.13;5009458;28;20120;-77
2023/10/14 08:25:11;;;;;;;20.17;3.55;;;;;;;11.35;100.00;101096.03;5009900;28;20168;-81
2023/10/14 08:27:36;;;;;;;17.08;3.58;;;;;;;11.39;100.00;101102.91;5009409;28;20398;-81
2023/10/14 08:30:10;;;;;;;17.90;3.50;;;;;;;11.41;100.00;101095.59;5010201;28;20104;-80
2023/10/14 08:32:40;;;;;;;16.42;3.67;;;;;;;11.44;100.00;101102.59;5011302;28;20018;-81
2023/10/14 08:35:17;;;;;;;18.17;3.92;;;;;;;11.47;100.00;101103.19;5011320;28;20033;-81
2023/10/14 08:37:47;;;;;;;12.23;2.92;;;;;;;11.54;100.00;101111.69;5022294;28;20029;-80
2023/10/14 08:40:16;;;;;;;19.67;3.72;;;;;;;11.57;100.00;101116.84;5010947;28;20034;-81
2023/10/14 08:42:48;;;;;;;16.23;3.45;;;;;;;11.63;100.00;101126.31;5012007;28;20057;-81
2023/10/14 08:45:16;;;;;;;21.85;3.50;;;;;;;11.65;100.00;101132.44;5014250;28;20504;-81
2023/10/14 08:47:45;;;;;;;20.67;3.22;;;;;;;11.70;100.00;101130.28;5030557;28;20471;-80
2023/10/14 08:50:15;;;;;;;15.20;3.42;;;;;;;11.72;100.00;101133.72;5014531;28;20037;-79
2023/10/14 08:52:45;;;;;;;19.27;2.80;;;;;;;11.77;100.00;101133.38;5014233;28;20101;-80
2023/10/14 08:55:13;;;;;;;18.38;3.47;;;;;;;11.82;100.00;101136.59;5014966;28;20486;-81
2023/10/14 08:57:39;;;;;;;17.95;3.97;;;;;;;11.87;100.00;101145.16;5013376;28;20089;-80
2023/10/14 09:00:06;;;;;;;22.10;3.63;;;;;;;11.91;100.00;101143.97;5012026;28;20501;-80
2023/10/14 09:02:31;;;;;;;19.05;3.45;;;;;;;11.91;97.33;101145.81;5013581;28;20060;-79
2023/10/14 09:04:59;;;;;;;20.58;3.88;;;;;;;11.93;95.98;101144.75;5012352;28;20052;-80
2023/10/14 09:07:24;;;;;;;9.52;2.63;;;;;;;11.94;96.04;101146.47;5012315;28;20033;-79
2023/10/14 09:09:53;;;;;;;16.48;3.67;;;;;;;11.98;97.26;101147.13;5012377;28;20030;-80
2023/10/14 09:12:18;;;;;;;26.23;3.67;;;;;;;12.02;97.72;101157.56;5010949;28;20084;-80
2023/10/14 09:14:43;;;;;;;17.75;3.88;;;;;;;12.05;95.00;101165.41;5027162;28;20034;-80
2023/10/14 09:17:09;;;;;;;12.75;3.28;;;;;;;12.13;95.52;101170.19;5011353;28;20033;-79
2023/10/14 09:19:49;;;;;;;20.10;3.45;;;;;;;12.11;93.71;101161.38;5011030;28;20652;-79
2023/10/14 09:22:26;;;;;;;24.02;3.70;;;;;;;12.14;93.88;101162.97;5013661;28;20030;-80
2023/10/14 09:24:52;;;;;;;14.38;2.88;;;;;;;12.18;94.52;101156.38;5012131;28;20041;-79
2023/10/14 09:27:19;;;;;;;12.60;3.03;;;;;;;12.21;91.62;101158.84;5012583;28;20037;-80
2023/10/14 09:29:45;;;;;;;17.27;3.22;;;;;;;12.27;93.04;101165.59;5010777;28;20037;-79
2023/10/14 09:32:11;;;;;;;15.77;3.38;;;;;;;12.30;92.11;101159.97;5012677;28;20455;-79
2023/10/14 09:34:41;;;;;;;17.77;3.08;;;;;;;12.34;90.79;101164.16;5010878;28;20112;-77
2023/10/14 09:37:10;;;;;;;13.38;2.90;;;;;;;12.38;90.40;101155.72;5011752;28;20037;-76
2023/10/14 09:39:39;;;;;;;17.25;3.75;;;;;;;12.42;90.78;101164.47;5002554;28;20077;-77
2023/10/14 09:42:10;;;;;;;11.18;2.55;;;;;;;12.48;92.52;101166.69;5012164;28;20033;-76
2023/10/14 09:44:39;;;;;;;16.10;3.33;;;;;;;12.48;90.02;101164.00;5010462;28;20017;-76
2023/10/14 09:47:09;;;;;;;9.88;2.40;;;;;;;12.52;89.15;101176.25;5011527;28;20142;-76
2023/10/14 09:49:36;;;;;;;13.23;3.10;;;;;;;12.51;89.98;101188.00;4994004;28;20333;-76
2023/10/14 09:52:03;;;;;;;14.52;2.70;;;;;;;12.48;81.35;101174.78;5010242;28;20064;-76
2023/10/14 09:54:31;;;;;;;14.05;3.20;;;;;;;12.46;78.29;101179.44;5011571;28;20029;-76
2023/10/14 09:57:00;;;;;;;18.10;3.20;;;;;;;12.50;80.23;101190.81;4993782;28;20049;-76
2023/10/14 09:59:28;;;;;;;15.10;3.23;;;;;;;12.54;78.59;101179.69;5010009;28;20026;-76
2023/10/14 10:01:53;;;;;;;12.85;2.95;;;;;;;12.56;79.12;101180.44;4993855;28;20044;-76
2023/10/14 10:04:24;;;;;;;10.65;2.70;;;;;;;12.60;77.28;101183.75;4993623;28;20045;-76
2023/10/14 10:06:58;;;;;;;16.75;3.30;;;;;;;12.63;77.97;101194.31;5011396;28;20037;-77
2023/10/14 10:09:49;;;;;;;13.15;2.42;;;;;;;12.68;77.57;101196.63;5011066;28;20033;-76
2023/10/14 10:12:17;;;;;;;13.95;3.22;;;;;;;12.69;74.56;101190.28;4995170;28;20069;-76
2023/10/14 10:14:43;;;;;;;14.48;3.45;;;;;;;12.71;76.39;101186.50;5011138;28;20032;-76
2023/10/14 10:17:15;;;;;;;18.05;2.85;;;;;;;12.76;74.82;101191.53;4993531;28;20438;-77
2023/10/14 10:20:09;;;;;;;20.63;3.35;;;;;;;12.80;75.21;101190.31;4993216;28;20231;-77
2023/10/14 10:22:52;;;;;;;16.83;2.97;;;;;;;12.79;73.75;101209.31;5005801;28;20108;-77
2023/10/14 10:25:20;;;;;;;14.35;3.15;;;;;;;12.71;71.05;101204.53;5001044;28;20386;-77
2023/10/14 10:27:55;;;;;;;13.43;3.15;;;;;;;12.71;69.78;101204.53;5011060;28;20384;-76
2023/10/14 10:30:22;;;;;;;14.23;3.13;;;;;;;12.67;74.84;101203.88;4993478;28;20037;-77
2023/10/14 10:32:50;;;;;;;14.50;2.53;;;;;;;12.70;75.98;101200.94;5010949;28;20474;-77
2023/10/14 10:35:20;;;;;;;12.98;3.10;;;;;;;12.71;74.80;101215.31;5011171;28;20033;-77
2023/10/14 10:37:46;;;;;;;17.98;2.60;;;;;;;12.70;73.29;101213.59;4987220;28;20447;-77
2023/10/14 10:40:13;;;;;;;15.57;3.08;;;;;;;12.70;73.74;101219.81;4993027;28;20041;-76
2023/10/14 10:42:46;;;;;;;16.23;2.50;;;;;;;12.73;71.92;101224.13;5009373;28;20026;-77
2023/10/14 10:45:20;;;;;;;11.25;2.60;;;;;;;12.72;72.94;101222.41;4993024;28;20036;-81
2023/10/14 10:47:57;;;;;;;12.93;2.47;;;;;;;12.79;71.53;101223.66;4988811;28;20050;-80
2023/10/14 10:50:36;;;;;;;16.27;2.95;;;;;;;12.50;73.10;101240.19;5010608;28;20033;-81
2023/10/14 10:53:10;;;;;;;15.40;3.60;;;;;;;12.40;74.32;101239.19;5010362;28;20029;-81
2023/10/14 10:55:41;;;;;;;17.67;3.10;;;;;;;12.39;72.86;101235.63;5025145;28;20037;-81
2023/10/14 10:58:13;;;;;;;12.20;2.63;;;;;;;12.47;74.58;101234.19;5010359;28;20032;-82
2023/10/14 11:00:46;;;;;;;16.48;3.10;;;;;;;12.58;75.41;101235.09;5010003;28;20030;-81
2023/10/14 11:03:15;;;;;;;15.10;3.28;;;;;;;12.65;76.44;101234.63;5024760;28;20026;-81
2023/10/14 11:05:42;;;;;;;16.55;2.92;;;;;;;12.71;73.42;101226.94;5009789;28;20048;-81
2023/10/14 11:08:08;;;;;;;19.63;2.75;;;;;;;12.76;72.77;101231.97;5008473;28;20029;-81
2023/10/14 11:10:38;;;;;;;14.00;2.72;;;;;;;12.86;76.01;101234.84;5009946;28;20121;-82
2023/10/14 11:13:06;;;;;;;19.17;3.20;;;;;;;12.91;72.41;101249.72;5024709;28;20030;-81
2023/10/14 11:15:31;;;;;;;14.07;2.92;;;;;;;13.05;72.66;101240.53;5009749;28;20030;-80
2023/10/14 11:17:59;;;;;;;9.95;2.53;;;;;;;13.07;73.28;101235.84;5008598;28;20465;-82
2023/10/14 11:20:31;;;;;;;12.52;2.95;;;;;;;13.15;75.86;101229.88;5008164;28;20041;-81
2023/10/14 11:22:58;;;;;;;21.08;3.58;;;;;;;13.24;75.04;101237.25;5008246;28;20057;-82
2023/10/14 11:25:24;;;;;;;13.88;2.60;;;;;;;13.32;74.59;101239.34;5008156;28;20052;-80
2023/10/14 11:27:49;;;;;;;14.15;3.05;;;;;;;13.40;72.38;101238.78;5009588;28;20030;-80
2023/10/14 11:30:15;;;;;;;13.88;2.97;;;;;;;13.48;71.59;101238.19;5024661;28;20044;-82
2023/10/14 11:32:46;;;;;;;15.57;2.97;;;;;;;13.52;63.46;101245.91;5008190;28;20061;-80
2023/10/14 11:35:16;;;;;;;10.38;2.08;;;;;;;13.55;65.42;101234.00;5007881;28;20452;-82
2023/10/14 11:37:43;;;;;;;12.15;2.33;;;;;;;13.56;65.61;101236.59;5007992;28;20047;-82
2023/10/14 11:40:17;;;;;;;13.23;2.50;;;;;;;13.58;66.85;101236.47;5009227;28;20053;-83
2023/10/14 11:42:43;;;;;;;14.85;3.50;;;;;;;13.57;64.83;101246.41;5001041;28;20363;-81
2023/10/14 11:45:08;;;;;;;15.15;2.90;;;;;;;13.61;67.94;101237.06;5024455;28;20022;-80
2023/10/14 11:47:38;;;;;;;9.10;2.53;;;;;;;13.61;69.41;101252.41;5007518;28;20100;-81